Chantal — A8WQ3 — position and weather

sailwx.info

Track history (hours):
 
Tides and Currents Weather Stations Pressure Air Temp Water Temp Dewpoint Dewpoint Depression Visibility Wind Speed Wind Dir Waves Ship Positions

Chantal

Last reported at 2014-Dec-16 07:08 UTC. Time now 2014-Dec-19 21:07 UTC.
Position N 37°28' W 123°15'.

Length 228 m; draft 8.4 m.

Type: Tanker. MMSI: 636014805.

Date/timePositionNaut miles runAvg speedWind from/ knotsBaromVisibWave heightAir tempDewpointWater temp
2014-Dec-16 07:08N 37°28' W 123°15'813.8
2014-Dec-16 06:33N 37°33' W 123°07'1413.6
2014-Dec-16 05:33N 37°40' W 122°53'1211.9
2014-Dec-16 04:33N 37°45' W 122°39'1312.7
2014-Dec-16 03:32N 37°49' W 122°24'3 1.3
2014-Dec-16 01:08N 37°46' W 122°21'0 0.1
2014-Dec-15 23:32N 37°46' W 122°21'0 0.0
2014-Dec-15 22:32N 37°46' W 122°21'0 0.1
2014-Dec-15 21:32N 37°46' W 122°21'0 0.1
2014-Dec-15 20:32N 37°46' W 122°21'0 0.1
2014-Dec-15 19:32N 37°46' W 122°21'0 0.0
2014-Dec-15 18:28N 37°46' W 122°21'0 0.0
2014-Dec-15 17:32N 37°46' W 122°21'0 0.0
2014-Dec-15 16:32N 37°46' W 122°21'0 0.1
2014-Dec-15 15:31N 37°46' W 122°21'0 0.1
2014-Dec-15 14:32N 37°46' W 122°21'0 0.2
2014-Dec-15 13:31N 37°46' W 122°21'0 0.1
2014-Dec-15 12:28N 37°46' W 122°21'0 0.0
2014-Dec-15 11:31N 37°46' W 122°21'0 0.1
2014-Dec-15 10:31N 37°46' W 122°21'0 0.2
2014-Dec-15 09:31N 37°46' W 122°21'0 0.1
2014-Dec-15 08:31N 37°46' W 122°21'0 0.0
2014-Dec-15 07:31N 37°46' W 122°21'0 0.0
2014-Dec-15 06:31N 37°46' W 122°21'0 0.0
2014-Dec-15 05:31N 37°46' W 122°21'0 0.0
2014-Dec-15 04:31N 37°46' W 122°21'0 0.0
2014-Dec-15 03:31N 37°46' W 122°21'0 0.2
2014-Dec-15 02:31N 37°46' W 122°21'0 0.1
2014-Dec-15 01:31N 37°46' W 122°21'0 0.0
2014-Dec-15 00:31N 37°46' W 122°21'0 0.0
2014-Dec-14 23:31N 37°46' W 122°21'0 0.0
2014-Dec-14 22:31N 37°46' W 122°21'0 0.1
2014-Dec-14 21:31N 37°46' W 122°21'0 0.1
2014-Dec-14 20:31N 37°46' W 122°21'0 0.0
2014-Dec-14 19:31N 37°46' W 122°21'0 0.1
2014-Dec-14 18:31N 37°46' W 122°21'0 0.0
2014-Dec-14 17:31N 37°46' W 122°21'0 0.1
2014-Dec-14 16:31N 37°46' W 122°21'0 0.0
2014-Dec-14 15:31N 37°46' W 122°21'0 0.1
2014-Dec-14 14:31N 37°46' W 122°21'0 0.2
2014-Dec-14 13:31N 37°46' W 122°21'1 0.6
2014-Dec-14 12:33N 37°46' W 122°22'1211.6
2014-Dec-14 11:33N 37°57' W 122°27'1212.1
2014-Dec-14 10:33N 38°04' W 122°14'5 0.2
2014-Dec-13 00:13N 38°02' W 122°08'3 3.6
2014-Dec-12 23:32N 38°03' W 122°11'1010.1
2014-Dec-12 22:33N 38°02' W 122°23'9 9.4
2014-Dec-12 21:33N 37°52' W 122°25'8 8.4
2014-Dec-12 20:33N 37°47' W 122°34'8 8.2
2014-Dec-12 19:33N 37°43' W 122°42'2 2.1
2014-Dec-12 18:33N 37°41' W 122°44'6 5.7
2014-Dec-12 17:33N 37°38' W 122°51'1110.8
2014-Dec-12 16:33N 37°32' W 123°02'8 7.7
2014-Dec-12 15:33N 37°27' W 123°09'10 9.6
2014-Dec-12 14:31N 37°17' W 123°09'3411.2
2014-Dec-12 11:27N 36°44' W 122°57'1212.7
2014-Dec-12 10:28N 36°32' W 122°53'1213.0
2014-Dec-12 09:33N 36°21' W 122°48'1212.1
2014-Dec-12 08:33N 36°10' W 122°40'1313.1
2014-Dec-12 07:33N 35°58' W 122°35'1312.9
2014-Dec-12 06:33N 35°46' W 122°29'1312.6
2014-Dec-12 05:32N 35°34' W 122°23'23012.5
2014-Dec-11 11:05N 32°23' W 119°49'1912.3
2014-Dec-11 09:33N 32°20' W 119°27'1313.0
2014-Dec-11 08:33N 32°20' W 119°11'1312.8
2014-Dec-11 07:33N 32°20' W 118°56'1312.6
2014-Dec-11 06:34N 32°20' W 118°41'1313.0
2014-Dec-11 05:33N 32°20' W 118°26'1313.2
2014-Dec-11 04:33N 32°20' W 118°10'1212.1
2014-Dec-11 03:33N 32°26' W 117°58'1413.7
2014-Dec-11 02:33N 32°38' W 117°50'1414.1
2014-Dec-11 01:34N 32°52' W 117°50'1313.0
2014-Dec-11 00:33N 33°04' W 117°56'1211.6
2014-Dec-10 23:33N 33°14' W 118°03'1211.6
2014-Dec-10 22:34N 33°24' W 118°09'1111.4
2014-Dec-10 21:34N 33°35' W 118°14'9 8.7
2014-Dec-10 20:33N 33°44' W 118°11'2 1.2
2014-Dec-10 19:17N 33°44' W 118°13'0 0.0
2014-Dec-10 18:32N 33°44' W 118°13'0 0.0
2014-Dec-10 17:32N 33°43' W 118°13'0 0.0
2014-Dec-10 16:32N 33°43' W 118°13'0 0.0
2014-Dec-10 15:29N 33°43' W 118°13'0 0.0
2014-Dec-10 14:32N 33°43' W 118°13'0 0.1
2014-Dec-10 13:32N 33°43' W 118°13'0 0.1
2014-Dec-10 12:11N 33°43' W 118°13'1 1.7
2014-Dec-10 11:33N 33°45' W 118°13'2 1.8
2014-Dec-10 10:32N 33°46' W 118°13'0 0.0
2014-Dec-10 09:32N 33°46' W 118°13'0 0.0
2014-Dec-10 08:32N 33°46' W 118°13'0 0.0
2014-Dec-10 07:32N 33°46' W 118°13'0 0.0
2014-Dec-10 06:32N 33°46' W 118°13'0 0.0
2014-Dec-10 05:32N 33°46' W 118°13'0 0.0
2014-Dec-10 04:32N 33°46' W 118°13'0 0.0
2014-Dec-10 03:32N 33°46' W 118°13'0 0.0
2014-Dec-10 02:32N 33°46' W 118°13'0 0.0
2014-Dec-10 01:29N 33°46' W 118°13'0 0.0
2014-Dec-10 00:32N 33°46' W 118°13'0 0.0
2014-Dec-09 23:32N 33°46' W 118°13'0 0.0
2014-Dec-09 22:32N 33°46' W 118°13'0 0.0
2014-Dec-09 21:32N 33°46' W 118°13'0 0.0
2014-Dec-09 20:32N 33°46' W 118°13'0 0.0
2014-Dec-09 19:32N 33°46' W 118°13'0 0.0
2014-Dec-09 18:32N 33°46' W 118°13'0 0.0
2014-Dec-09 17:32N 33°46' W 118°13'0 0.0
2014-Dec-09 16:32N 33°46' W 118°13'0 0.0
2014-Dec-09 15:32N 33°46' W 118°13'0 0.0
2014-Dec-09 14:32N 33°46' W 118°13'0 0.0
2014-Dec-09 13:32N 33°46' W 118°13'0 0.0
2014-Dec-09 12:32N 33°46' W 118°13'0 0.0
2014-Dec-09 11:32N 33°46' W 118°13'0 0.0
2014-Dec-09 10:32N 33°46' W 118°13'0 0.0
2014-Dec-09 09:32N 33°46' W 118°13'0 0.0
2014-Dec-09 08:32N 33°46' W 118°13'0 0.0
2014-Dec-09 07:32N 33°46' W 118°13'0 0.0
2014-Dec-09 06:32N 33°46' W 118°13'0 0.0
2014-Dec-09 05:32N 33°46' W 118°13'0 0.0
2014-Dec-09 04:32N 33°46' W 118°13'0 0.0
2014-Dec-09 03:32N 33°46' W 118°13'0 0.0
2014-Dec-09 02:32N 33°46' W 118°13'0 0.0
2014-Dec-09 01:32N 33°46' W 118°13'0 0.0
2014-Dec-09 00:32N 33°46' W 118°13'0 0.0
2014-Dec-08 23:32N 33°46' W 118°13'2 1.7
2014-Dec-08 22:33N 33°45' W 118°13'7 7.2
2014-Dec-08 21:33N 33°38' W 118°10'1111.3
2014-Dec-08 20:33N 33°27' W 118°06'1111.5
2014-Dec-08 19:33N 33°16' W 118°01'1111.4
2014-Dec-08 18:33N 33°06' W 117°56'9 9.0
2014-Dec-08 17:33N 32°58' W 117°52'1211.7
2014-Dec-08 16:33N 32°46' W 117°48'1313.2
2014-Dec-08 15:33N 32°34' W 117°44'1313.4
2014-Dec-08 14:33N 32°21' W 117°40'1313.3
2014-Dec-08 13:33N 32°08' W 117°36'1413.2
2014-Dec-08 12:28N 31°54' W 117°32'1913.2
2014-Dec-08 11:04N 31°36' W 117°26'713.3
2014-Dec-08 10:33N 31°29' W 117°24'1512.9
2014-Dec-08 09:25N 31°15' W 117°20'  
Track history (hours):
 
Tides and Currents Weather Stations Pressure Air Temp Water Temp Dewpoint Dewpoint Depression Visibility Wind Speed Wind Dir Waves Ship Positions

Chantal

Last reported at 2014-Dec-16 07:08 UTC. Time now 2014-Dec-19 21:07 UTC.
Position N 37°28' W 123°15'.

Length 228 m; draft 8.4 m.

Type: Tanker. MMSI: 636014805.

Date/timePositionNaut miles runAvg speedWind from/ knotsBaromVisibWave heightAir tempDewpointWater temp
2014-Dec-16 07:08N 37°28' W 123°15'813.8
2014-Dec-16 06:33N 37°33' W 123°07'1413.6
2014-Dec-16 05:33N 37°40' W 122°53'1211.9
2014-Dec-16 04:33N 37°45' W 122°39'1312.7
2014-Dec-16 03:32N 37°49' W 122°24'3 1.3
2014-Dec-16 01:08N 37°46' W 122°21'0 0.1
2014-Dec-15 23:32N 37°46' W 122°21'0 0.0
2014-Dec-15 22:32N 37°46' W 122°21'0 0.1
2014-Dec-15 21:32N 37°46' W 122°21'0 0.1
2014-Dec-15 20:32N 37°46' W 122°21'0 0.1
2014-Dec-15 19:32N 37°46' W 122°21'0 0.0
2014-Dec-15 18:28N 37°46' W 122°21'0 0.0
2014-Dec-15 17:32N 37°46' W 122°21'0 0.0
2014-Dec-15 16:32N 37°46' W 122°21'0 0.1
2014-Dec-15 15:31N 37°46' W 122°21'0 0.1
2014-Dec-15 14:32N 37°46' W 122°21'0 0.2
2014-Dec-15 13:31N 37°46' W 122°21'0 0.1
2014-Dec-15 12:28N 37°46' W 122°21'0 0.0
2014-Dec-15 11:31N 37°46' W 122°21'0 0.1
2014-Dec-15 10:31N 37°46' W 122°21'0 0.2
2014-Dec-15 09:31N 37°46' W 122°21'0 0.1
2014-Dec-15 08:31N 37°46' W 122°21'0 0.0
2014-Dec-15 07:31N 37°46' W 122°21'0 0.0
2014-Dec-15 06:31N 37°46' W 122°21'0 0.0
2014-Dec-15 05:31N 37°46' W 122°21'0 0.0
2014-Dec-15 04:31N 37°46' W 122°21'0 0.0
2014-Dec-15 03:31N 37°46' W 122°21'0 0.2
2014-Dec-15 02:31N 37°46' W 122°21'0 0.1
2014-Dec-15 01:31N 37°46' W 122°21'0 0.0
2014-Dec-15 00:31N 37°46' W 122°21'0 0.0
2014-Dec-14 23:31N 37°46' W 122°21'0 0.0
2014-Dec-14 22:31N 37°46' W 122°21'0 0.1
2014-Dec-14 21:31N 37°46' W 122°21'0 0.1
2014-Dec-14 20:31N 37°46' W 122°21'0 0.0
2014-Dec-14 19:31N 37°46' W 122°21'0 0.1
2014-Dec-14 18:31N 37°46' W 122°21'0 0.0
2014-Dec-14 17:31N 37°46' W 122°21'0 0.1
2014-Dec-14 16:31N 37°46' W 122°21'0 0.0
2014-Dec-14 15:31N 37°46' W 122°21'0 0.1
2014-Dec-14 14:31N 37°46' W 122°21'0 0.2
2014-Dec-14 13:31N 37°46' W 122°21'1 0.6
2014-Dec-14 12:33N 37°46' W 122°22'1211.6
2014-Dec-14 11:33N 37°57' W 122°27'1212.1
2014-Dec-14 10:33N 38°04' W 122°14'5 0.2
2014-Dec-13 00:13N 38°02' W 122°08'3 3.6
2014-Dec-12 23:32N 38°03' W 122°11'1010.1
2014-Dec-12 22:33N 38°02' W 122°23'9 9.4
2014-Dec-12 21:33N 37°52' W 122°25'8 8.4
2014-Dec-12 20:33N 37°47' W 122°34'8 8.2
2014-Dec-12 19:33N 37°43' W 122°42'2 2.1
2014-Dec-12 18:33N 37°41' W 122°44'6 5.7
2014-Dec-12 17:33N 37°38' W 122°51'1110.8
2014-Dec-12 16:33N 37°32' W 123°02'8 7.7
2014-Dec-12 15:33N 37°27' W 123°09'10 9.6
2014-Dec-12 14:31N 37°17' W 123°09'3411.2
2014-Dec-12 11:27N 36°44' W 122°57'1212.7
2014-Dec-12 10:28N 36°32' W 122°53'1213.0
2014-Dec-12 09:33N 36°21' W 122°48'1212.1
2014-Dec-12 08:33N 36°10' W 122°40'1313.1
2014-Dec-12 07:33N 35°58' W 122°35'1312.9
2014-Dec-12 06:33N 35°46' W 122°29'1312.6
2014-Dec-12 05:32N 35°34' W 122°23'23012.5
2014-Dec-11 11:05N 32°23' W 119°49'1912.3
2014-Dec-11 09:33N 32°20' W 119°27'1313.0
2014-Dec-11 08:33N 32°20' W 119°11'1312.8
2014-Dec-11 07:33N 32°20' W 118°56'1312.6
2014-Dec-11 06:34N 32°20' W 118°41'1313.0
2014-Dec-11 05:33N 32°20' W 118°26'1313.2
2014-Dec-11 04:33N 32°20' W 118°10'1212.1
2014-Dec-11 03:33N 32°26' W 117°58'1413.7
2014-Dec-11 02:33N 32°38' W 117°50'1414.1
2014-Dec-11 01:34N 32°52' W 117°50'1313.0
2014-Dec-11 00:33N 33°04' W 117°56'1211.6
2014-Dec-10 23:33N 33°14' W 118°03'1211.6
2014-Dec-10 22:34N 33°24' W 118°09'1111.4
2014-Dec-10 21:34N 33°35' W 118°14'9 8.7
2014-Dec-10 20:33N 33°44' W 118°11'2 1.2
2014-Dec-10 19:17N 33°44' W 118°13'0 0.0
2014-Dec-10 18:32N 33°44' W 118°13'0 0.0
2014-Dec-10 17:32N 33°43' W 118°13'0 0.0
2014-Dec-10 16:32N 33°43' W 118°13'0 0.0
2014-Dec-10 15:29N 33°43' W 118°13'0 0.0
2014-Dec-10 14:32N 33°43' W 118°13'0 0.1
2014-Dec-10 13:32N 33°43' W 118°13'0 0.1
2014-Dec-10 12:11N 33°43' W 118°13'1 1.7
2014-Dec-10 11:33N 33°45' W 118°13'2 1.8
2014-Dec-10 10:32N 33°46' W 118°13'0 0.0
2014-Dec-10 09:32N 33°46' W 118°13'0 0.0
2014-Dec-10 08:32N 33°46' W 118°13'0 0.0
2014-Dec-10 07:32N 33°46' W 118°13'0 0.0
2014-Dec-10 06:32N 33°46' W 118°13'0 0.0
2014-Dec-10 05:32N 33°46' W 118°13'0 0.0
2014-Dec-10 04:32N 33°46' W 118°13'0 0.0
2014-Dec-10 03:32N 33°46' W 118°13'0 0.0
2014-Dec-10 02:32N 33°46' W 118°13'0 0.0
2014-Dec-10 01:29N 33°46' W 118°13'0 0.0
2014-Dec-10 00:32N 33°46' W 118°13'0 0.0
2014-Dec-09 23:32N 33°46' W 118°13'0 0.0
2014-Dec-09 22:32N 33°46' W 118°13'0 0.0
2014-Dec-09 21:32N 33°46' W 118°13'0 0.0
2014-Dec-09 20:32N 33°46' W 118°13'0 0.0
2014-Dec-09 19:32N 33°46' W 118°13'0 0.0
2014-Dec-09 18:32N 33°46' W 118°13'0 0.0
2014-Dec-09 17:32N 33°46' W 118°13'0 0.0
2014-Dec-09 16:32N 33°46' W 118°13'0 0.0
2014-Dec-09 15:32N 33°46' W 118°13'0 0.0
2014-Dec-09 14:32N 33°46' W 118°13'0 0.0
2014-Dec-09 13:32N 33°46' W 118°13'0 0.0
2014-Dec-09 12:32N 33°46' W 118°13'0 0.0
2014-Dec-09 11:32N 33°46' W 118°13'0 0.0
2014-Dec-09 10:32N 33°46' W 118°13'0 0.0
2014-Dec-09 09:32N 33°46' W 118°13'0 0.0
2014-Dec-09 08:32N 33°46' W 118°13'0 0.0
2014-Dec-09 07:32N 33°46' W 118°13'0 0.0
2014-Dec-09 06:32N 33°46' W 118°13'0 0.0
2014-Dec-09 05:32N 33°46' W 118°13'0 0.0
2014-Dec-09 04:32N 33°46' W 118°13'0 0.0
2014-Dec-09 03:32N 33°46' W 118°13'0 0.0
2014-Dec-09 02:32N 33°46' W 118°13'0 0.0
2014-Dec-09 01:32N 33°46' W 118°13'0 0.0
2014-Dec-09 00:32N 33°46' W 118°13'0 0.0
2014-Dec-08 23:32N 33°46' W 118°13'2 1.7
2014-Dec-08 22:33N 33°45' W 118°13'7 7.2
2014-Dec-08 21:33N 33°38' W 118°10'1111.3
2014-Dec-08 20:33N 33°27' W 118°06'1111.5
2014-Dec-08 19:33N 33°16' W 118°01'1111.4
2014-Dec-08 18:33N 33°06' W 117°56'9 9.0
2014-Dec-08 17:33N 32°58' W 117°52'1211.7
2014-Dec-08 16:33N 32°46' W 117°48'1313.2
2014-Dec-08 15:33N 32°34' W 117°44'1313.4
2014-Dec-08 14:33N 32°21' W 117°40'1313.3
2014-Dec-08 13:33N 32°08' W 117°36'1413.2
2014-Dec-08 12:28N 31°54' W 117°32'1913.2
2014-Dec-08 11:04N 31°36' W 117°26'713.3
2014-Dec-08 10:33N 31°29' W 117°24'1512.9
2014-Dec-08 09:25N 31°15' W 117°20'  

Dump ship's entire track history